Time;durP1;ratioP1;P1;durP2;ratioP2;P2;SDS_P1;SDS_P2;PMS_P1;PMS_P2;Temp;Humidity;BMP_temperature;BMP_pressure;BME280_temperature;BME280_humidity;BME280_pressure;Samples;Min_cycle;Max_cycle;Signal;HPM_P1;HPM_P2
2022/07/25 00:02:04;;;;;;;3.80;3.45;;;23.00;83.10;;;;;;5055281;28;20201;-83
2022/07/25 00:04:52;;;;;;;4.95;4.47;;;22.90;83.00;;;;;;5054395;28;20229;-84
2022/07/25 00:07:46;;;;;;;4.05;3.70;;;22.90;84.50;;;;;;5054279;28;20228;-84
2022/07/25 00:10:25;;;;;;;3.88;3.63;;;22.90;84.30;;;;;;5054267;28;20210;-84
2022/07/25 00:13:12;;;;;;;3.80;3.50;;;22.90;85.20;;;;;;5054167;28;20218;-84
2022/07/25 00:18:48;;;;;;;3.63;3.30;;;22.90;85.20;;;;;;5054246;28;20189;-80
2022/07/25 00:21:17;;;;;;;3.95;3.60;;;22.80;87.30;;;;;;5054133;28;20212;-79
2022/07/25 00:23:47;;;;;;;4.10;3.70;;;22.80;86.20;;;;;;5053701;28;20317;-78
2022/07/25 00:26:15;;;;;;;5.15;3.53;;;22.80;87.10;;;;;;5054413;28;20274;-78
2022/07/25 00:28:44;;;;;;;3.42;3.20;;;22.80;88.40;;;;;;5054306;28;20205;-78
2022/07/25 00:31:12;;;;;;;4.53;4.13;;;22.80;88.80;;;;;;5054102;28;20205;-78
2022/07/25 00:33:40;;;;;;;3.85;3.45;;;22.70;88.20;;;;;;5054025;28;20233;-78
2022/07/25 00:36:09;;;;;;;3.88;3.58;;;22.70;88.40;;;;;;5053751;28;20225;-78
2022/07/25 00:38:37;;;;;;;3.63;3.33;;;22.70;89.90;;;;;;5053900;28;20205;-78
2022/07/25 00:41:07;;;;;;;4.13;3.50;;;22.70;90.40;;;;;;5053805;28;20214;-78
2022/07/25 00:43:36;;;;;;;3.38;3.17;;;22.70;89.40;;;;;;5054103;28;20229;-78
2022/07/25 00:46:04;;;;;;;3.42;3.05;;;22.80;88.70;;;;;;5053956;28;20206;-78
2022/07/25 00:48:35;;;;;;;3.70;3.22;;;22.80;87.30;;;;;;5053567;28;20233;-78
2022/07/25 00:51:04;;;;;;;3.20;3.00;;;22.80;86.50;;;;;;5053655;28;20235;-78
2022/07/25 00:53:33;;;;;;;3.30;3.08;;;22.80;85.10;;;;;;5053493;28;20222;-78
2022/07/25 00:56:01;;;;;;;4.45;3.90;;;22.80;87.30;;;;;;5053501;28;20289;-78
2022/07/25 00:58:31;;;;;;;4.13;3.83;;;22.80;87.60;;;;;;5053438;28;20293;-78
2022/07/25 01:01:00;;;;;;;3.75;3.47;;;22.80;89.00;;;;;;5053822;28;20277;-78
2022/07/25 01:03:29;;;;;;;5.30;3.92;;;22.80;88.40;;;;;;5053490;28;20229;-78
2022/07/25 01:05:57;;;;;;;3.90;3.60;;;22.80;88.40;;;;;;5053278;28;20260;-78
2022/07/25 01:08:26;;;;;;;5.20;3.45;;;22.70;90.00;;;;;;5053357;28;20221;-78
2022/07/25 01:10:54;;;;;;;2.80;2.60;;;22.70;91.10;;;;;;5053633;28;20201;-77
2022/07/25 01:13:22;;;;;;;3.70;3.40;;;22.70;90.70;;;;;;5053000;28;20230;-78
2022/07/25 01:15:52;;;;;;;3.58;3.25;;;22.60;90.40;;;;;;5052966;28;20209;-78
2022/07/25 01:18:20;;;;;;;3.22;2.92;;;22.50;90.50;;;;;;5052974;28;20218;-78
2022/07/25 01:20:50;;;;;;;2.97;2.78;;;22.50;91.20;;;;;;5053020;28;20285;-78
2022/07/25 01:23:18;;;;;;;3.60;3.25;;;22.50;91.30;;;;;;5052305;28;20285;-78
2022/07/25 01:25:46;;;;;;;3.50;3.20;;;22.40;91.50;;;;;;5053558;28;20273;-78
2022/07/25 01:28:15;;;;;;;3.40;3.10;;;22.40;91.50;;;;;;5053358;28;20228;-78
2022/07/25 01:30:43;;;;;;;3.40;3.20;;;22.30;91.40;;;;;;5052877;28;20269;-78
2022/07/25 01:33:16;;;;;;;3.22;2.75;;;22.30;91.60;;;;;;5052833;28;20231;-78
2022/07/25 01:35:44;;;;;;;3.22;3.03;;;22.20;91.70;;;;;;5053436;28;20194;-78
2022/07/25 01:38:15;;;;;;;3.70;3.40;;;22.20;92.70;;;;;;5052463;28;20309;-77
2022/07/25 01:40:44;;;;;;;3.30;3.00;;;22.10;92.50;;;;;;5052214;28;20265;-78
2022/07/25 01:43:12;;;;;;;2.97;2.53;;;22.10;92.70;;;;;;5052312;28;20209;-78
2022/07/25 01:45:41;;;;;;;3.08;2.88;;;22.00;93.30;;;;;;5053298;28;20265;-78
2022/07/25 01:48:09;;;;;;;4.18;3.33;;;22.00;93.70;;;;;;5052877;28;20201;-78
2022/07/25 01:50:37;;;;;;;3.08;2.88;;;21.90;93.70;;;;;;5053309;28;20244;-78
2022/07/25 01:53:07;;;;;;;3.20;2.90;;;22.00;93.30;;;;;;5053561;28;20194;-78
2022/07/25 01:55:36;;;;;;;3.88;3.58;;;21.90;93.50;;;;;;5053285;28;20261;-78
2022/07/25 01:58:04;;;;;;;3.17;2.97;;;21.90;94.10;;;;;;5052866;28;20313;-78
2022/07/25 02:00:34;;;;;;;3.85;3.28;;;21.90;94.10;;;;;;5053007;28;20233;-78
2022/07/25 02:05:48;;;;;;;4.22;3.83;;;21.70;94.90;;;;;;5053259;28;20276;-78
2022/07/25 02:08:17;;;;;;;3.70;3.40;;;21.70;95.80;;;;;;5052979;28;20229;-78
2022/07/25 02:10:46;;;;;;;3.22;3.03;;;21.70;96.10;;;;;;5052973;28;20212;-77
2022/07/25 02:13:15;;;;;;;4.10;3.78;;;21.70;95.90;;;;;;5053024;28;20210;-77
2022/07/25 02:15:43;;;;;;;3.10;2.90;;;21.60;96.10;;;;;;5052628;28;20265;-77
2022/07/25 02:18:11;;;;;;;3.03;2.83;;;21.70;96.80;;;;;;5052982;28;20277;-77
2022/07/25 02:20:40;;;;;;;6.47;3.53;;;21.60;96.90;;;;;;5052400;28;20206;-77
2022/07/25 02:23:08;;;;;;;3.60;3.30;;;21.60;98.10;;;;;;5052536;28;20293;-77
2022/07/25 02:25:37;;;;;;;4.03;3.55;;;21.60;98.70;;;;;;5052599;28;20292;-78
2022/07/25 02:28:07;;;;;;;4.07;3.50;;;21.60;97.80;;;;;;5052867;28;20226;-78
2022/07/25 02:30:37;;;;;;;4.43;4.03;;;21.60;98.60;;;;;;5052604;28;20212;-77
2022/07/25 02:33:06;;;;;;;3.65;3.38;;;21.60;98.30;;;;;;5052420;28;20287;-77
2022/07/25 02:35:35;;;;;;;3.92;3.63;;;21.60;98.80;;;;;;5055797;28;20277;-77
2022/07/25 02:38:03;;;;;;;4.05;3.65;;;21.60;99.20;;;;;;5056422;28;20260;-77
2022/07/25 02:40:31;;;;;;;3.42;3.20;;;21.60;99.70;;;;;;5056284;28;20296;-77
2022/07/25 02:43:00;;;;;;;3.55;3.30;;;21.60;99.90;;;;;;5055792;28;20277;-77
2022/07/25 02:45:29;;;;;;;4.30;3.92;;;21.60;99.90;;;;;;5056420;28;20292;-77
2022/07/25 02:48:01;;;;;;;4.68;3.35;;;21.60;99.90;;;;;;5056190;28;20208;-77
2022/07/25 02:50:29;;;;;;;4.13;3.78;;;21.50;99.90;;;;;;5056139;28;20213;-77
2022/07/25 02:52:57;;;;;;;4.32;3.92;;;21.50;99.90;;;;;;5055767;28;20308;-77
2022/07/25 02:55:26;;;;;;;5.03;3.58;;;21.50;99.90;;;;;;5055906;28;20224;-77
2022/07/25 02:57:54;;;;;;;3.33;3.13;;;21.50;99.90;;;;;;5055947;28;20227;-78
2022/07/25 03:00:22;;;;;;;3.53;3.33;;;21.50;99.90;;;;;;5055814;28;20210;-77
2022/07/25 03:02:52;;;;;;;3.85;3.33;;;21.50;99.90;;;;;;5055708;28;20210;-77
2022/07/25 03:05:20;;;;;;;3.33;3.03;;;21.50;99.90;;;;;;5055570;28;20229;-77
2022/07/25 03:07:49;;;;;;;4.20;3.55;;;21.50;99.50;;;;;;5055900;28;20205;-77
2022/07/25 03:10:17;;;;;;;3.33;3.03;;;21.50;98.90;;;;;;5055358;28;20261;-77
2022/07/25 03:12:45;;;;;;;4.00;3.30;;;21.40;98.60;;;;;;5055747;28;20214;-77
2022/07/25 03:15:14;;;;;;;3.92;3.63;;;21.40;99.10;;;;;;5055453;28;20226;-77
2022/07/25 03:17:42;;;;;;;3.22;3.03;;;21.40;99.30;;;;;;5055472;28;20226;-77
2022/07/25 03:20:13;;;;;;;3.67;3.35;;;21.40;99.10;;;;;;5055180;28;20281;-77
2022/07/25 03:22:41;;;;;;;3.25;3.00;;;21.40;99.90;;;;;;5055364;28;20268;-77
2022/07/25 03:25:10;;;;;;;3.30;3.00;;;21.40;99.90;;;;;;5055143;28;20316;-77
2022/07/25 03:27:49;;;;;;;3.58;3.20;;;21.40;99.80;;;;;;5055579;28;20204;-77
2022/07/25 03:30:18;;;;;;;3.83;3.38;;;21.30;99.30;;;;;;5054960;28;20280;-77
2022/07/25 03:32:46;;;;;;;3.65;3.38;;;21.30;99.70;;;;;;5055431;28;20210;-77
2022/07/25 03:35:16;;;;;;;5.00;3.85;;;21.30;98.80;;;;;;5055422;28;20229;-77
2022/07/25 03:37:44;;;;;;;3.63;3.33;;;21.30;98.60;;;;;;5055074;28;20285;-77
2022/07/25 03:40:13;;;;;;;5.50;3.70;;;21.30;99.90;;;;;;5054988;28;20310;-80
2022/07/25 03:42:43;;;;;;;7.00;3.63;;;21.30;99.90;;;;;;5054735;28;20251;-78
2022/07/25 03:45:11;;;;;;;2.88;2.67;;;21.30;98.80;;;;;;5054039;28;20226;-78
2022/07/25 03:47:39;;;;;;;4.00;3.03;;;21.30;99.90;;;;;;5054501;28;20288;-78
2022/07/25 03:50:08;;;;;;;3.70;3.40;;;21.30;99.80;;;;;;5054690;28;20209;-78
2022/07/25 03:52:38;;;;;;;3.35;3.15;;;21.30;99.30;;;;;;5055208;28;20237;-78
2022/07/25 03:55:07;;;;;;;3.03;2.83;;;21.40;99.20;;;;;;5055131;28;20225;-78
2022/07/25 03:57:36;;;;;;;3.47;3.17;;;21.40;98.70;;;;;;5054337;28;20236;-78
2022/07/25 04:00:06;;;;;;;10.27;3.53;;;21.40;98.70;;;;;;5054387;28;20251;-78
2022/07/25 04:02:36;;;;;;;3.65;3.35;;;21.40;98.30;;;;;;5054542;28;20226;-78
2022/07/25 04:05:05;;;;;;;4.72;3.75;;;21.40;98.60;;;;;;5054602;28;20236;-78
2022/07/25 04:07:33;;;;;;;3.58;3.28;;;21.40;98.10;;;;;;5054673;28;20210;-78
2022/07/25 04:10:04;;;;;;;3.53;3.20;;;21.40;97.90;;;;;;5054640;28;20285;-78
2022/07/25 04:12:32;;;;;;;5.82;3.53;;;21.50;98.50;;;;;;5054666;28;20216;-78
2022/07/25 04:15:01;;;;;;;3.20;2.97;;;21.50;98.90;;;;;;5054612;28;20308;-78
2022/07/25 04:17:29;;;;;;;4.40;3.67;;;21.50;99.10;;;;;;5054457;28;20206;-78
2022/07/25 04:19:57;;;;;;;5.10;4.15;;;21.60;99.00;;;;;;5053841;28;20232;-78
2022/07/25 04:22:25;;;;;;;5.32;3.88;;;21.50;98.90;;;;;;5054533;28;20217;-78
2022/07/25 04:25:05;;;;;;;4.13;3.83;;;21.60;98.90;;;;;;5078683;22;20240;-78
2022/07/25 04:27:39;;;;;;;4.28;3.92;;;21.70;99.90;;;;;;5054106;28;20178;-78
2022/07/25 04:30:14;;;;;;;5.95;3.40;;;21.70;99.90;;;;;;5053719;28;20224;-79
2022/07/25 04:32:55;;;;;;;3.58;3.30;;;21.60;99.90;;;;;;5053964;28;20189;-78
2022/07/25 04:35:42;;;;;;;6.88;4.40;;;21.70;99.90;;;;;;5053891;28;20221;-78
2022/07/25 04:38:11;;;;;;;4.25;3.85;;;21.70;99.90;;;;;;5053639;28;20205;-78
2022/07/25 04:40:44;;;;;;;5.30;4.70;;;21.70;99.90;;;;;;5053606;28;20206;-79
2022/07/25 04:43:17;;;;;;;4.20;3.80;;;21.70;99.90;;;;;;5053498;28;20201;-78
2022/07/25 04:45:45;;;;;;;4.70;4.28;;;21.70;99.90;;;;;;5053528;28;20202;-77
2022/07/25 04:48:14;;;;;;;6.40;4.35;;;21.70;99.90;;;;;;5056923;28;20201;-78
2022/07/25 04:50:42;;;;;;;4.45;3.47;;;21.80;99.90;;;;;;5073714;28;20209;-75
2022/07/25 04:53:11;;;;;;;4.55;4.07;;;21.80;99.90;;;;;;5073765;28;20205;-75
2022/07/25 04:55:39;;;;;;;4.15;3.85;;;21.90;99.90;;;;;;5073548;28;20313;-74
2022/07/25 04:58:07;;;;;;;4.95;4.07;;;21.90;99.90;;;;;;5061595;28;20231;-76
2022/07/25 05:00:37;;;;;;;4.18;3.50;;;21.90;99.90;;;;;;5053612;28;20194;-76
2022/07/25 05:03:06;;;;;;;3.47;3.17;;;22.00;99.90;;;;;;5053973;28;20209;-76
2022/07/25 05:05:38;;;;;;;6.90;4.20;;;22.00;99.90;;;;;;5053289;28;20285;-78
2022/07/25 05:08:08;;;;;;;3.53;3.28;;;22.10;99.90;;;;;;5069579;28;20204;-76
2022/07/25 05:10:38;;;;;;;3.97;3.67;;;22.20;99.90;;;;;;5049058;28;20190;-76
2022/07/25 05:13:13;;;;;;;7.65;4.53;;;22.20;99.90;;;;;;5039449;28;20292;-76
2022/07/25 05:15:50;;;;;;;3.95;3.63;;;22.20;99.90;;;;;;5045342;28;20193;-79
2022/07/25 05:18:18;;;;;;;4.18;3.47;;;22.30;99.90;;;;;;5043775;28;20206;-76
2022/07/25 05:20:47;;;;;;;4.22;3.75;;;22.30;99.90;;;;;;5041852;28;20207;-79
2022/07/25 05:23:15;;;;;;;4.30;3.90;;;22.30;99.90;;;;;;5033625;28;20206;-83
2022/07/25 05:25:43;;;;;;;4.43;4.13;;;22.40;99.90;;;;;;5050810;28;20206;-82
2022/07/25 05:28:13;;;;;;;4.32;3.90;;;22.40;99.90;;;;;;5053570;28;20205;-86
2022/07/25 05:30:43;;;;;;;4.47;4.07;;;22.40;99.90;;;;;;5053448;28;20236;-88
2022/07/25 05:33:14;;;;;;;6.50;4.05;;;22.40;99.50;;;;;;5053171;28;20214;-86
2022/07/25 05:35:48;;;;;;;5.75;4.07;;;22.40;98.20;;;;;;5052584;28;20221;-86
2022/07/25 05:38:18;;;;;;;4.10;3.78;;;22.50;98.10;;;;;;5052856;28;20206;-86
2022/07/25 05:40:59;;;;;;;3.85;3.50;;;22.50;98.30;;;;;;5052104;28;20333;-86
2022/07/25 05:43:30;;;;;;;4.30;3.80;;;22.60;97.60;;;;;;5052139;28;20284;-86
2022/07/25 05:46:06;;;;;;;5.35;3.92;;;22.60;97.70;;;;;;5052143;28;20209;-86
2022/07/25 05:48:44;;;;;;;4.75;4.32;;;22.70;97.30;;;;;;5052656;28;20202;-86
2022/07/25 05:51:14;;;;;;;5.78;4.70;;;22.80;96.10;;;;;;5052343;28;20212;-85
2022/07/25 05:53:46;;;;;;;4.95;4.55;;;22.80;96.20;;;;;;5051912;28;20232;-86
2022/07/25 05:56:15;;;;;;;4.13;3.72;;;22.80;96.10;;;;;;5052917;28;20209;-86
2022/07/25 05:58:48;;;;;;;4.93;3.97;;;22.90;96.00;;;;;;5051969;28;20263;-86
2022/07/25 06:01:21;;;;;;;8.27;4.93;;;22.90;96.10;;;;;;5051356;28;20219;-79
2022/07/25 06:03:52;;;;;;;3.95;3.58;;;23.00;95.20;;;;;;5057182;28;20271;-79
2022/07/25 06:06:20;;;;;;;4.75;4.25;;;23.10;96.10;;;;;;5052513;28;20201;-79
2022/07/25 06:08:48;;;;;;;5.45;4.53;;;23.20;94.60;;;;;;5053609;28;20208;-79
2022/07/25 06:11:18;;;;;;;4.75;4.28;;;23.30;94.50;;;;;;5056663;28;20209;-79
2022/07/25 06:13:48;;;;;;;4.28;3.88;;;23.40;93.70;;;;;;5056560;28;20225;-79
2022/07/25 06:16:16;;;;;;;3.90;3.60;;;23.50;92.60;;;;;;5056720;28;20202;-79
2022/07/25 06:18:45;;;;;;;4.05;3.65;;;23.60;92.20;;;;;;5056252;28;20278;-79
2022/07/25 06:21:14;;;;;;;16.38;4.40;;;23.60;91.70;;;;;;5055641;28;20218;-80
2022/07/25 06:23:43;;;;;;;4.07;3.78;;;23.70;91.90;;;;;;5056578;28;20229;-79
2022/07/25 06:26:11;;;;;;;5.63;4.53;;;23.80;91.00;;;;;;5056302;28;20254;-79
2022/07/25 06:28:39;;;;;;;5.00;4.50;;;23.80;90.80;;;;;;5036495;28;20202;-79
2022/07/25 06:31:08;;;;;;;4.05;3.75;;;23.90;91.10;;;;;;5055442;28;20262;-79
2022/07/25 06:33:36;;;;;;;4.32;3.92;;;23.90;90.10;;;;;;5056657;28;20288;-79
2022/07/25 06:36:05;;;;;;;8.05;4.65;;;23.90;90.60;;;;;;5056205;28;20251;-79
2022/07/25 06:38:35;;;;;;;3.95;3.65;;;24.10;91.40;;;;;;5056324;28;20206;-79
2022/07/25 06:41:03;;;;;;;4.75;4.35;;;24.20;91.20;;;;;;5055719;28;20213;-79
2022/07/25 06:43:31;;;;;;;4.13;3.83;;;24.30;91.00;;;;;;5055746;28;20205;-79
2022/07/25 06:45:59;;;;;;;10.68;4.05;;;24.50;90.60;;;;;;5056052;28;20212;-79
2022/07/25 06:48:29;;;;;;;4.65;4.25;;;24.60;89.80;;;;;;5055490;28;20209;-79
2022/07/25 06:50:57;;;;;;;4.05;3.75;;;24.70;91.00;;;;;;5044401;28;20208;-79
2022/07/25 06:53:25;;;;;;;4.30;3.90;;;24.80;90.10;;;;;;5055509;28;20202;-79
2022/07/25 06:55:55;;;;;;;7.68;4.03;;;24.90;88.20;;;;;;5055925;28;20292;-80
2022/07/25 06:58:23;;;;;;;4.47;4.07;;;25.10;90.10;;;;;;5055067;28;20236;-79
2022/07/25 07:00:52;;;;;;;6.63;5.70;;;25.20;88.90;;;;;;5054624;28;20315;-80
2022/07/25 07:03:21;;;;;;;10.95;4.05;;;25.40;89.80;;;;;;5055086;28;20198;-80
2022/07/25 07:05:49;;;;;;;4.32;3.92;;;25.60;88.30;;;;;;5054476;28;20210;-79
2022/07/25 07:08:17;;;;;;;4.10;3.70;;;25.80;86.50;;;;;;5069920;28;20276;-75
2022/07/25 07:10:46;;;;;;;4.68;4.28;;;25.90;86.20;;;;;;5075481;28;20288;-74
2022/07/25 07:13:17;;;;;;;5.00;3.95;;;26.10;86.00;;;;;;5064572;28;20206;-79
2022/07/25 07:15:51;;;;;;;4.28;3.88;;;26.40;85.70;;;;;;5053423;28;20193;-78
2022/07/25 07:18:20;;;;;;;5.13;4.07;;;26.50;83.60;;;;;;5075119;28;20208;-71
2022/07/25 07:20:49;;;;;;;3.33;3.13;;;26.70;83.80;;;;;;5054937;28;20222;-73
2022/07/25 07:23:17;;;;;;;4.88;4.38;;;26.80;82.90;;;;;;5067975;28;20280;-73
2022/07/25 07:25:46;;;;;;;5.47;4.65;;;26.90;81.80;;;;;;5058752;28;20365;-72
2022/07/25 07:28:16;;;;;;;3.95;3.58;;;27.00;81.00;;;;;;5055699;28;20213;-72
2022/07/25 07:30:45;;;;;;;2.42;2.22;;;27.10;78.30;;;;;;5052296;28;20197;-75
2022/07/25 07:33:33;;;;;;;3.60;3.13;;;27.20;75.60;;;;;;5034862;28;20209;-76
2022/07/25 07:36:02;;;;;;;2.03;1.92;;;27.30;73.40;;;;;;5054871;28;20238;-75
2022/07/25 07:38:30;;;;;;;2.90;2.70;;;27.40;72.20;;;;;;5037789;28;20205;-82
2022/07/25 07:40:59;;;;;;;2.58;2.38;;;27.70;71.40;;;;;;5053259;28;20309;-86
2022/07/25 07:44:01;;;;;;;3.45;2.97;;;28.00;68.20;;;;;;5048771;28;20293;-86
2022/07/25 07:47:01;;;;;;;2.58;2.38;;;28.10;67.40;;;;;;5053643;28;20284;-86
2022/07/25 07:49:29;;;;;;;2.53;2.13;;;28.30;66.50;;;;;;5055060;28;20214;-86
2022/07/25 07:52:04;;;;;;;3.03;2.83;;;28.70;66.00;;;;;;5054848;28;20292;-86
2022/07/25 07:57:21;;;;;;;2.78;2.53;;;29.80;66.30;;;;;;5054932;28;20297;-86
2022/07/25 07:59:51;;;;;;;2.85;2.63;;;30.50;63.50;;;;;;5055069;28;20284;-86
2022/07/25 08:03:13;;;;;;;3.65;2.40;;;30.90;61.00;;;;;;5055059;28;20197;-86
2022/07/25 08:05:44;;;;;;;2.75;2.55;;;31.50;59.40;;;;;;5054542;28;20238;-86
2022/07/25 08:08:14;;;;;;;2.75;2.55;;;31.80;57.90;;;;;;5054463;28;20276;-86
2022/07/25 08:10:44;;;;;;;2.90;2.70;;;32.40;58.30;;;;;;5054562;28;20205;-86
2022/07/25 08:13:18;;;;;;;3.70;2.78;;;32.90;57.40;;;;;;5054970;28;20213;-86
2022/07/25 08:15:50;;;;;;;2.60;2.40;;;33.20;56.90;;;;;;5060303;28;20197;-86
2022/07/25 08:18:20;;;;;;;2.03;1.88;;;33.10;54.00;;;;;;5053505;28;20209;-86
2022/07/25 08:20:52;;;;;;;2.67;2.47;;;33.30;54.30;;;;;;5066140;28;20213;-87
2022/07/25 08:23:21;;;;;;;5.70;2.85;;;33.00;53.10;;;;;;5053621;28;20212;-86
2022/07/25 08:25:49;;;;;;;2.45;2.25;;;33.40;54.30;;;;;;5053665;28;20197;-86
2022/07/25 08:28:18;;;;;;;2.55;2.20;;;33.70;53.20;;;;;;5053841;28;20228;-86
2022/07/25 08:30:48;;;;;;;2.38;2.13;;;34.00;53.10;;;;;;5053993;28;20201;-86
2022/07/25 08:33:17;;;;;;;2.60;2.40;;;34.30;52.90;;;;;;5053141;28;20208;-87
2022/07/25 08:35:47;;;;;;;2.22;2.13;;;34.60;52.70;;;;;;5053661;28;20211;-86
2022/07/25 08:38:16;;;;;;;2.85;2.50;;;34.90;51.00;;;;;;5053803;28;20201;-87
2022/07/25 08:40:45;;;;;;;3.55;2.25;;;35.20;52.60;;;;;;5053639;28;20282;-86
2022/07/25 08:43:16;;;;;;;2.38;2.20;;;35.60;52.20;;;;;;5053284;28;20233;-87
2022/07/25 08:45:46;;;;;;;9.70;2.20;;;35.90;50.40;;;;;;5053529;28;20276;-86
2022/07/25 08:48:19;;;;;;;2.67;2.47;;;36.00;49.80;;;;;;5053871;28;20286;-87
2022/07/25 08:50:48;;;;;;;3.20;2.42;;;35.90;48.00;;;;;;5053799;28;20197;-87
2022/07/25 08:53:19;;;;;;;2.83;2.53;;;35.80;50.30;;;;;;5053349;28;20201;-87
2022/07/25 08:56:05;;;;;;;2.65;2.45;;;35.80;48.80;;;;;;5053513;28;20259;-87
2022/07/25 08:58:44;;;;;;;2.47;2.38;;;36.20;48.10;;;;;;5033777;28;20263;-88
2022/07/25 09:01:15;;;;;;;2.55;2.35;;;36.60;47.20;;;;;;5033912;28;20249;-87
2022/07/25 09:03:45;;;;;;;3.15;2.83;;;36.70;46.70;;;;;;5033475;28;20241;-87
2022/07/25 09:06:17;;;;;;;2.70;2.50;;;36.80;47.60;;;;;;5033004;28;20202;-87
2022/07/25 09:08:53;;;;;;;2.90;2.70;;;36.30;47.20;;;;;;5066532;28;20259;-86
2022/07/25 09:11:30;;;;;;;6.80;3.00;;;36.30;48.00;;;;;;5033253;28;20201;-87
2022/07/25 09:14:03;;;;;;;3.63;3.00;;;36.40;47.40;;;;;;5033565;28;20225;-87
2022/07/25 09:16:36;;;;;;;4.32;2.63;;;36.70;47.40;;;;;;5033531;28;20197;-87
2022/07/25 09:19:13;;;;;;;2.80;2.58;;;37.00;46.60;;;;;;5033007;28;20255;-86
2022/07/25 09:21:44;;;;;;;2.67;2.53;;;37.30;45.30;;;;;;5042382;28;20235;-87
2022/07/25 09:24:15;;;;;;;3.03;2.83;;;37.70;45.40;;;;;;5052909;28;20239;-87
2022/07/25 09:26:51;;;;;;;2.72;2.53;;;37.90;48.00;;;;;;5052700;28;20219;-86
2022/07/25 09:29:23;;;;;;;3.28;3.00;;;37.90;45.50;;;;;;5051796;28;20221;-86
2022/07/25 09:31:53;;;;;;;3.13;2.92;;;37.10;45.70;;;;;;5053705;28;20215;-86
2022/07/25 09:34:35;;;;;;;3.42;2.88;;;37.20;46.30;;;;;;5073120;28;20263;-86
2022/07/25 09:37:04;;;;;;;2.65;2.45;;;36.90;48.10;;;;;;5072963;28;20257;-86
2022/07/25 09:39:34;;;;;;;3.20;3.00;;;37.10;46.80;;;;;;5072447;28;20205;-86
2022/07/25 09:42:03;;;;;;;3.33;3.03;;;37.50;46.40;;;;;;5069576;28;20311;-86
2022/07/25 09:44:31;;;;;;;3.67;2.85;;;37.70;46.20;;;;;;5054553;28;20229;-86
2022/07/25 09:47:10;;;;;;;2.78;2.58;;;38.00;45.90;;;;;;5056336;28;20239;-85
2022/07/25 09:49:46;;;;;;;9.57;3.10;;;37.90;46.60;;;;;;5056935;28;20197;-85
2022/07/25 09:52:16;;;;;;;3.70;3.40;;;37.40;48.60;;;;;;5056718;28;20219;-86
2022/07/25 09:54:44;;;;;;;3.10;2.90;;;37.20;48.20;;;;;;5056940;28;20236;-86
2022/07/25 09:57:12;;;;;;;3.42;3.13;;;37.00;48.50;;;;;;5056793;28;20300;-86
2022/07/25 09:59:41;;;;;;;3.33;3.03;;;36.30;48.70;;;;;;5056450;28;20239;-86
2022/07/25 10:02:15;;;;;;;3.20;2.90;;;36.50;50.00;;;;;;5056940;28;20239;-87
2022/07/25 10:04:54;;;;;;;2.70;2.50;;;36.80;49.70;;;;;;5054343;28;20220;-86
2022/07/25 10:07:23;;;;;;;3.05;2.85;;;37.00;48.50;;;;;;5036837;28;20240;-86
2022/07/25 10:10:00;;;;;;;2.83;2.63;;;37.00;48.20;;;;;;5037009;28;20209;-86
2022/07/25 10:12:28;;;;;;;3.05;2.85;;;37.00;48.20;;;;;;5037169;28;20202;-86
2022/07/25 10:15:09;;;;;;;3.90;3.50;;;36.90;48.90;;;;;;5036601;28;20309;-86
2022/07/25 10:17:43;;;;;;;4.82;3.55;;;36.80;50.20;;;;;;5051471;28;20301;-87
2022/07/25 10:20:13;;;;;;;3.17;2.97;;;36.90;48.80;;;;;;5056656;28;20220;-86
2022/07/25 10:22:44;;;;;;;2.97;2.78;;;37.30;50.20;;;;;;5056241;28;20311;-86
2022/07/25 10:25:23;;;;;;;3.45;3.15;;;37.70;50.00;;;;;;5091932;22;20228;-86
2022/07/25 10:27:58;;;;;;;3.58;3.20;;;37.90;48.90;;;;;;5064506;28;20211;-85
2022/07/25 10:30:28;;;;;;;3.75;3.53;;;37.40;48.40;;;;;;5056720;28;20209;-86
2022/07/25 10:32:59;;;;;;;17.17;3.53;;;37.50;50.00;;;;;;5056498;28;20285;-85
2022/07/25 10:35:29;;;;;;;3.97;3.58;;;37.50;49.20;;;;;;5056412;28;20244;-86
2022/07/25 10:38:00;;;;;;;3.83;3.35;;;37.40;50.20;;;;;;5056257;28;20212;-86
2022/07/25 10:40:43;;;;;;;5.95;3.53;;;37.40;49.20;;;;;;5068750;28;20204;-86
2022/07/25 10:43:14;;;;;;;3.78;3.40;;;37.10;50.80;;;;;;5076110;28;20213;-85
2022/07/25 10:45:44;;;;;;;6.40;3.08;;;37.20;50.40;;;;;;5076387;28;20252;-86
2022/07/25 10:48:21;;;;;;;3.85;3.20;;;37.30;50.30;;;;;;5076690;28;20269;-86
2022/07/25 10:50:53;;;;;;;3.90;3.55;;;37.20;49.20;;;;;;5075804;28;20200;-85
2022/07/25 10:53:38;;;;;;;3.50;3.22;;;37.20;50.50;;;;;;5076469;28;20205;-85
2022/07/25 10:56:08;;;;;;;3.45;3.25;;;37.30;50.00;;;;;;5055585;28;20225;-86
2022/07/25 10:58:52;;;;;;;5.03;4.53;;;37.40;48.60;;;;;;5055782;28;20213;-87
2022/07/25 11:01:23;;;;;;;3.15;2.95;;;37.30;50.10;;;;;;5056172;28;20224;-86
2022/07/25 11:03:53;;;;;;;3.42;3.13;;;37.30;48.80;;;;;;5070389;28;20280;-86
2022/07/25 11:06:34;;;;;;;4.15;3.53;;;37.20;48.20;;;;;;5076108;28;20204;-86
2022/07/25 11:09:03;;;;;;;3.92;3.53;;;37.60;48.70;;;;;;5065405;28;20196;-86
2022/07/25 11:11:37;;;;;;;3.35;3.15;;;37.50;48.10;;;;;;5075573;28;20205;-86
2022/07/25 11:14:14;;;;;;;4.75;3.25;;;37.60;48.80;;;;;;5075822;28;20204;-86
2022/07/25 11:16:42;;;;;;;3.55;3.25;;;37.70;48.20;;;;;;5075734;28;20196;-86
2022/07/25 11:19:19;;;;;;;3.83;3.53;;;37.90;48.60;;;;;;5075458;28;20258;-86
2022/07/25 11:21:51;;;;;;;3.20;3.00;;;38.30;48.30;;;;;;5075409;28;20212;-86
2022/07/25 11:24:21;;;;;;;7.13;3.03;;;38.70;48.30;;;;;;5075108;28;20263;-86
2022/07/25 11:26:51;;;;;;;3.42;3.20;;;38.60;47.20;;;;;;5075562;28;20197;-86
2022/07/25 11:29:25;;;;;;;6.03;3.88;;;38.90;47.50;;;;;;5075720;28;20197;-86
2022/07/25 11:31:58;;;;;;;3.60;3.17;;;39.00;47.20;;;;;;5075167;28;20314;-86
2022/07/25 11:34:29;;;;;;;4.28;2.75;;;38.90;47.70;;;;;;5075550;28;20288;-86
2022/07/25 11:37:04;;;;;;;3.58;3.20;;;38.80;47.10;;;;;;5075134;28;20289;-86
2022/07/25 11:39:36;;;;;;;4.00;3.70;;;38.20;46.70;;;;;;5075227;28;20200;-86
2022/07/25 11:42:06;;;;;;;5.82;3.72;;;38.30;47.50;;;;;;5075256;28;20261;-86
2022/07/25 11:44:38;;;;;;;5.30;3.70;;;38.70;47.40;;;;;;5075082;28;20212;-85
2022/07/25 11:47:24;;;;;;;4.20;3.17;;;39.10;47.90;;;;;;5075496;28;20196;-84
2022/07/25 11:49:54;;;;;;;3.70;3.40;;;39.00;45.90;;;;;;5074838;28;20196;-85
2022/07/25 11:52:28;;;;;;;3.75;3.45;;;39.10;46.80;;;;;;5074873;28;20204;-85
2022/07/25 11:54:58;;;;;;;3.42;3.13;;;38.70;46.90;;;;;;5070749;28;20227;-87
2022/07/25 11:57:27;;;;;;;3.35;3.15;;;38.50;46.80;;;;;;5074954;28;20204;-86
2022/07/25 11:59:56;;;;;;;3.60;3.30;;;38.80;46.70;;;;;;5074952;28;20200;-86
2022/07/25 12:02:26;;;;;;;15.02;3.50;;;39.10;47.70;;;;;;5074641;28;20311;-86
2022/07/25 12:04:57;;;;;;;3.10;2.90;;;39.30;45.70;;;;;;5074682;28;20236;-86
2022/07/25 12:07:45;;;;;;;3.22;2.97;;;39.50;45.50;;;;;;5073932;28;20196;-86
2022/07/25 12:10:16;;;;;;;3.40;3.10;;;39.70;45.50;;;;;;5074392;28;20231;-86
2022/07/25 12:12:49;;;;;;;3.90;3.60;;;40.00;46.20;;;;;;5074444;28;20197;-86
2022/07/25 12:15:21;;;;;;;4.28;3.15;;;39.90;45.50;;;;;;5074655;28;20224;-86
2022/07/25 12:17:51;;;;;;;3.97;3.67;;;39.80;45.50;;;;;;5074814;28;20209;-86
2022/07/25 12:20:22;;;;;;;4.28;3.70;;;39.50;45.50;;;;;;5074398;28;20209;-86
2022/07/25 12:22:53;;;;;;;3.97;3.50;;;39.60;46.50;;;;;;5074516;28;20280;-87
2022/07/25 12:25:22;;;;;;;3.28;3.08;;;39.50;45.60;;;;;;5053888;28;20229;-86
2022/07/25 12:27:58;;;;;;;4.45;3.15;;;39.60;46.00;;;;;;5054186;28;20216;-86
2022/07/25 12:30:28;;;;;;;3.90;3.50;;;39.70;45.80;;;;;;5074558;28;20204;-86
2022/07/25 12:32:58;;;;;;;4.68;4.15;;;39.90;45.50;;;;;;5054174;28;20236;-86
2022/07/25 12:35:27;;;;;;;4.57;3.53;;;39.70;45.30;;;;;;5072536;28;20251;-86
2022/07/25 12:37:57;;;;;;;3.20;3.00;;;39.50;45.50;;;;;;5074080;28;20263;-86
2022/07/25 12:40:26;;;;;;;6.18;3.67;;;39.50;45.80;;;;;;5073784;28;20247;-87
2022/07/25 12:42:56;;;;;;;5.38;3.42;;;39.40;45.50;;;;;;5073824;28;20247;-86
2022/07/25 12:45:24;;;;;;;4.63;3.83;;;39.10;46.30;;;;;;5073832;28;20224;-86
2022/07/25 12:47:53;;;;;;;3.72;3.42;;;39.20;46.80;;;;;;5074880;28;20243;-91
2022/07/25 12:50:24;;;;;;;3.90;3.60;;;39.20;46.00;;;;;;5074460;28;20259;-86
2022/07/25 12:52:57;;;;;;;3.50;3.25;;;39.00;46.70;;;;;;5073955;28;20271;-87
2022/07/25 12:55:25;;;;;;;4.20;3.80;;;38.90;46.30;;;;;;5073636;28;20234;-86
2022/07/25 12:57:54;;;;;;;5.22;3.78;;;39.20;46.80;;;;;;5073541;28;20254;-87
2022/07/25 13:00:23;;;;;;;3.75;3.40;;;39.30;46.70;;;;;;5073749;28;20275;-87
2022/07/25 13:02:54;;;;;;;4.00;3.70;;;39.30;46.20;;;;;;5073536;28;20217;-87
2022/07/25 13:05:25;;;;;;;3.28;3.08;;;38.90;45.80;;;;;;5073911;28;20220;-87
2022/07/25 13:07:54;;;;;;;4.10;3.78;;;38.70;46.50;;;;;;5073394;28;20258;-87
2022/07/25 13:10:25;;;;;;;5.95;4.38;;;38.50;46.40;;;;;;5074144;28;20200;-87
2022/07/25 13:12:55;;;;;;;3.85;3.58;;;38.60;47.20;;;;;;5067922;28;20193;-87
2022/07/25 13:15:29;;;;;;;3.75;3.45;;;38.20;47.40;;;;;;5072899;28;20220;-87